Birmingham, United Kingdom

9:11 AM BST on October 24, 2014 (GMT +0100)
I90579489 | Change Station
CLOSE
Current Station
Personal Weather Station
Location: Solihull, West Midlands
Elevation: 394 ft
Nearby Weather Stations

Elev 394 ft 52.41 °N, 1.76 °W | Updated 9 seconds ago

Mostly Cloudy
Mostly Cloudy
56.7 °F
Feels Like 56.7 °F
N
3.1
Wind Variable Wind from SSE
Gusts 3.5 mph

Today
High -- | Low -- °F
--% Chance of Precip.
Yesterday
High -- | Low -- °F
Precip. -- in
7:48 AM 5:53 PM
New Moon, 0% visible
Pressure 29.92 in
Visibility 6.2 miles
Clouds Few 800 ft
Mostly Cloudy 1000 ft
Dew Point 55 °F
Humidity 93%
Rainfall 0.00 in
Snow Depth Not available.
UV 0 out of 12
Pollen Not available.
Air Quality Not available.
Flu Activity Not available.
METAR EGBB 240750Z 19005KT 160V250 9999 FEW008 BKN010 13/12 Q1013

More Conditions Fewer Conditions

Pressure 29.92 in
Visibility 6.2 miles
Clouds Few 800 ft
Mostly Cloudy 1000 ft
Dew Point 55 °F
Humidity 93%
Rainfall 0.00 in
Snow Depth Not available.
UV 0 out of 12
Pollen Not available.
Air Quality Not available.
Flu Activity Not available.
METAR EGBB 240750Z 19005KT 160V250 9999 FEW008 BKN010 13/12 Q1013

More Conditions Fewer Conditions

10-Day Weather Forecast

Almanac

Astronomy

Oct. 24, 2014 Rise Set
Actual Time 7:48 AM BST 5:53 PM BST
Civil Twilight 7:12 AM BST 6:28 PM BST
Nautical Twilight 6:33 AM BST 7:08 PM BST
Astronomical Twilight 5:53 AM BST 7:47 PM BST
Moon 8:15 AM BST 6:18 PM BST
Length of Visible Light 11h 15m
Length of Day
10h 05m
Tomorrow will be 3m 51s shorter.
New Moon, 0% of the Moon is Illuminated
Today
New Moon
Oct 30
First Quarter
Nov 6
Full
Nov 14
Last Quarter
Nov 22
New

Yesterday's Extremes

Country Highs Country Lows

Community

WunderPhotos

Upload Photos

1,764,511 photos uploaded!

WunderBlogs® & News

Nearby

Snow Depth

Not available.

Earthquake Activity

City Distance Mag. Time & Date
No recent earthquake activity has been reported nearby.
Minimum magnitude displayed is 2.5.

Coastal Water Temperatures

Place Temperature
No Stations Reporting

Nearby Weather Stations